sensor_id;sensor_type;location;lat;lon;timestamp;temperature;humidity
11944;DHT22;6031;50.220;10.122;2023-05-24T00:01:16;9.10;64.90
11944;DHT22;6031;50.220;10.122;2023-05-24T00:03:50;9.10;99.90
11944;DHT22;6031;50.220;10.122;2023-05-24T00:06:16;9.10;1.00
11944;DHT22;6031;50.220;10.122;2023-05-24T00:08:42;9.20;99.90
11944;DHT22;6031;50.220;10.122;2023-05-24T00:11:07;9.20;1.00
11944;DHT22;6031;50.220;10.122;2023-05-24T00:13:35;9.10;1.00
11944;DHT22;6031;50.220;10.122;2023-05-24T00:16:00;9.10;30.80
11944;DHT22;6031;50.220;10.122;2023-05-24T00:18:26;9.10;1.00
11944;DHT22;6031;50.220;10.122;2023-05-24T00:20:51;9.00;99.90
11944;DHT22;6031;50.220;10.122;2023-05-24T00:23:17;8.90;1.00
11944;DHT22;6031;50.220;10.122;2023-05-24T00:25:43;8.80;99.90
11944;DHT22;6031;50.220;10.122;2023-05-24T00:28:08;8.80;1.00
11944;DHT22;6031;50.220;10.122;2023-05-24T00:30:34;8.70;1.00
11944;DHT22;6031;50.220;10.122;2023-05-24T00:33:00;8.60;99.90
11944;DHT22;6031;50.220;10.122;2023-05-24T00:35:26;8.60;1.00
11944;DHT22;6031;50.220;10.122;2023-05-24T00:37:51;8.60;1.00
11944;DHT22;6031;50.220;10.122;2023-05-24T00:40:17;8.50;1.00
11944;DHT22;6031;50.220;10.122;2023-05-24T00:42:42;8.40;1.00
11944;DHT22;6031;50.220;10.122;2023-05-24T00:45:08;8.30;79.10
11944;DHT22;6031;50.220;10.122;2023-05-24T00:47:34;8.20;99.90
11944;DHT22;6031;50.220;10.122;2023-05-24T00:50:00;8.10;99.90
11944;DHT22;6031;50.220;10.122;2023-05-24T00:52:25;8.00;99.90
11944;DHT22;6031;50.220;10.122;2023-05-24T00:54:51;8.00;32.80
11944;DHT22;6031;50.220;10.122;2023-05-24T00:57:17;8.00;90.10
11944;DHT22;6031;50.220;10.122;2023-05-24T00:59:43;7.90;1.00
11944;DHT22;6031;50.220;10.122;2023-05-24T01:02:10;7.90;99.90
11944;DHT22;6031;50.220;10.122;2023-05-24T01:04:35;7.90;1.00
11944;DHT22;6031;50.220;10.122;2023-05-24T01:07:24;7.90;1.00
11944;DHT22;6031;50.220;10.122;2023-05-24T01:09:57;7.90;1.00
11944;DHT22;6031;50.220;10.122;2023-05-24T01:15:06;7.70;14.30
11944;DHT22;6031;50.220;10.122;2023-05-24T01:20:27;7.60;1.00
11944;DHT22;6031;50.220;10.122;2023-05-24T01:23:03;7.70;1.00
11944;DHT22;6031;50.220;10.122;2023-05-24T01:25:52;7.60;5.40
11944;DHT22;6031;50.220;10.122;2023-05-24T01:28:25;7.60;99.90
11944;DHT22;6031;50.220;10.122;2023-05-24T01:30:52;7.60;1.00
11944;DHT22;6031;50.220;10.122;2023-05-24T01:33:18;7.70;1.00
11944;DHT22;6031;50.220;10.122;2023-05-24T01:35:43;7.70;99.90
11944;DHT22;6031;50.220;10.122;2023-05-24T01:38:09;7.70;99.90
11944;DHT22;6031;50.220;10.122;2023-05-24T01:40:39;7.70;70.10
11944;DHT22;6031;50.220;10.122;2023-05-24T01:49:02;7.60;1.00
11944;DHT22;6031;50.220;10.122;2023-05-24T01:51:35;7.50;99.90
11944;DHT22;6031;50.220;10.122;2023-05-24T01:54:04;7.50;99.90
11944;DHT22;6031;50.220;10.122;2023-05-24T01:56:30;7.50;99.90
11944;DHT22;6031;50.220;10.122;2023-05-24T01:58:58;7.60;1.00
11944;DHT22;6031;50.220;10.122;2023-05-24T02:01:25;7.70;99.90
11944;DHT22;6031;50.220;10.122;2023-05-24T02:03:51;7.70;99.90
11944;DHT22;6031;50.220;10.122;2023-05-24T02:06:16;7.90;1.00
11944;DHT22;6031;50.220;10.122;2023-05-24T02:08:42;7.90;7.30
11944;DHT22;6031;50.220;10.122;2023-05-24T02:11:07;7.90;1.00
11944;DHT22;6031;50.220;10.122;2023-05-24T02:13:33;7.90;1.00
11944;DHT22;6031;50.220;10.122;2023-05-24T02:15:59;8.00;1.00
11944;DHT22;6031;50.220;10.122;2023-05-24T02:18:24;8.10;99.90
11944;DHT22;6031;50.220;10.122;2023-05-24T02:20:50;8.10;99.90
11944;DHT22;6031;50.220;10.122;2023-05-24T02:23:15;8.10;99.90
11944;DHT22;6031;50.220;10.122;2023-05-24T02:25:41;8.20;8.20
11944;DHT22;6031;50.220;10.122;2023-05-24T02:28:06;8.20;1.00
11944;DHT22;6031;50.220;10.122;2023-05-24T02:30:32;8.20;1.00
11944;DHT22;6031;50.220;10.122;2023-05-24T02:32:58;8.20;99.90
11944;DHT22;6031;50.220;10.122;2023-05-24T02:35:25;8.20;99.90
11944;DHT22;6031;50.220;10.122;2023-05-24T02:37:50;8.20;99.90
11944;DHT22;6031;50.220;10.122;2023-05-24T02:40:16;8.20;99.90
11944;DHT22;6031;50.220;10.122;2023-05-24T02:42:42;8.30;1.00
11944;DHT22;6031;50.220;10.122;2023-05-24T02:45:07;8.30;99.90
11944;DHT22;6031;50.220;10.122;2023-05-24T02:47:33;8.40;99.90
11944;DHT22;6031;50.220;10.122;2023-05-24T02:49:58;8.40;1.00
11944;DHT22;6031;50.220;10.122;2023-05-24T02:52:24;8.40;1.00
11944;DHT22;6031;50.220;10.122;2023-05-24T02:54:49;8.40;99.90
11944;DHT22;6031;50.220;10.122;2023-05-24T02:57:15;8.50;1.00
11944;DHT22;6031;50.220;10.122;2023-05-24T02:59:41;8.60;1.00
11944;DHT22;6031;50.220;10.122;2023-05-24T03:02:07;8.70;99.90
11944;DHT22;6031;50.220;10.122;2023-05-24T03:04:33;8.70;1.00
11944;DHT22;6031;50.220;10.122;2023-05-24T03:06:58;8.80;99.90
11944;DHT22;6031;50.220;10.122;2023-05-24T03:09:24;8.80;99.90
11944;DHT22;6031;50.220;10.122;2023-05-24T03:11:49;8.80;99.90
11944;DHT22;6031;50.220;10.122;2023-05-24T03:14:17;8.80;1.00
11944;DHT22;6031;50.220;10.122;2023-05-24T03:16:44;8.80;99.90
11944;DHT22;6031;50.220;10.122;2023-05-24T03:19:10;8.90;1.00
11944;DHT22;6031;50.220;10.122;2023-05-24T03:21:36;8.90;1.00
11944;DHT22;6031;50.220;10.122;2023-05-24T03:24:01;9.00;1.00
11944;DHT22;6031;50.220;10.122;2023-05-24T03:26:27;9.00;1.00
11944;DHT22;6031;50.220;10.122;2023-05-24T03:28:52;9.10;1.00
11944;DHT22;6031;50.220;10.122;2023-05-24T03:31:19;9.10;1.00
11944;DHT22;6031;50.220;10.122;2023-05-24T03:33:45;9.10;1.00
11944;DHT22;6031;50.220;10.122;2023-05-24T03:36:10;9.00;1.00
11944;DHT22;6031;50.220;10.122;2023-05-24T03:38:36;9.00;1.00
11944;DHT22;6031;50.220;10.122;2023-05-24T03:41:01;9.00;1.00
11944;DHT22;6031;50.220;10.122;2023-05-24T03:43:27;9.10;1.00
11944;DHT22;6031;50.220;10.122;2023-05-24T03:45:52;9.10;1.00
11944;DHT22;6031;50.220;10.122;2023-05-24T03:48:18;9.10;1.00
11944;DHT22;6031;50.220;10.122;2023-05-24T03:50:45;9.20;1.00
11944;DHT22;6031;50.220;10.122;2023-05-24T03:53:11;9.20;99.90
11944;DHT22;6031;50.220;10.122;2023-05-24T03:55:37;9.20;99.90
11944;DHT22;6031;50.220;10.122;2023-05-24T03:58:02;9.20;99.90
11944;DHT22;6031;50.220;10.122;2023-05-24T04:00:28;9.20;99.90
11944;DHT22;6031;50.220;10.122;2023-05-24T04:02:53;9.30;99.90
11944;DHT22;6031;50.220;10.122;2023-05-24T04:05:20;9.40;99.90
11944;DHT22;6031;50.220;10.122;2023-05-24T04:07:45;9.30;99.90
11944;DHT22;6031;50.220;10.122;2023-05-24T04:10:11;9.40;99.90
11944;DHT22;6031;50.220;10.122;2023-05-24T04:12:37;9.30;99.90
11944;DHT22;6031;50.220;10.122;2023-05-24T04:15:02;9.40;57.70
11944;DHT22;6031;50.220;10.122;2023-05-24T04:17:29;9.40;99.90
11944;DHT22;6031;50.220;10.122;2023-05-24T04:19:57;9.40;1.00
11944;DHT22;6031;50.220;10.122;2023-05-24T04:22:22;9.50;1.00
11944;DHT22;6031;50.220;10.122;2023-05-24T04:24:48;9.40;1.00
11944;DHT22;6031;50.220;10.122;2023-05-24T04:27:13;9.30;1.00
11944;DHT22;6031;50.220;10.122;2023-05-24T04:29:40;9.30;1.00
11944;DHT22;6031;50.220;10.122;2023-05-24T04:32:06;9.30;1.00
11944;DHT22;6031;50.220;10.122;2023-05-24T04:34:31;9.20;1.00
11944;DHT22;6031;50.220;10.122;2023-05-24T04:37:00;9.30;1.00
11944;DHT22;6031;50.220;10.122;2023-05-24T04:39:26;9.30;1.00
11944;DHT22;6031;50.220;10.122;2023-05-24T04:41:52;9.30;99.90
11944;DHT22;6031;50.220;10.122;2023-05-24T04:44:19;9.30;1.00
11944;DHT22;6031;50.220;10.122;2023-05-24T04:46:45;9.20;1.00
11944;DHT22;6031;50.220;10.122;2023-05-24T04:49:10;9.10;99.90
11944;DHT22;6031;50.220;10.122;2023-05-24T04:51:36;9.00;99.90
11944;DHT22;6031;50.220;10.122;2023-05-24T04:54:04;9.00;1.00
11944;DHT22;6031;50.220;10.122;2023-05-24T04:56:36;9.00;1.00
11944;DHT22;6031;50.220;10.122;2023-05-24T04:59:03;9.00;1.00
11944;DHT22;6031;50.220;10.122;2023-05-24T05:01:30;9.00;1.00
11944;DHT22;6031;50.220;10.122;2023-05-24T05:03:55;9.10;1.00
11944;DHT22;6031;50.220;10.122;2023-05-24T05:06:21;9.10;1.00
11944;DHT22;6031;50.220;10.122;2023-05-24T05:08:46;9.20;1.00
11944;DHT22;6031;50.220;10.122;2023-05-24T05:11:13;9.30;1.00
11944;DHT22;6031;50.220;10.122;2023-05-24T05:13:38;9.20;1.00
11944;DHT22;6031;50.220;10.122;2023-05-24T05:16:04;9.20;1.00
11944;DHT22;6031;50.220;10.122;2023-05-24T05:18:30;9.20;1.00
11944;DHT22;6031;50.220;10.122;2023-05-24T05:20:55;9.20;1.00
11944;DHT22;6031;50.220;10.122;2023-05-24T05:23:21;9.10;1.00
11944;DHT22;6031;50.220;10.122;2023-05-24T05:25:47;9.10;1.00
11944;DHT22;6031;50.220;10.122;2023-05-24T05:28:12;9.00;1.00
11944;DHT22;6031;50.220;10.122;2023-05-24T05:30:38;8.90;1.00
11944;DHT22;6031;50.220;10.122;2023-05-24T05:33:03;8.90;1.00
11944;DHT22;6031;50.220;10.122;2023-05-24T05:35:30;9.10;1.00
11944;DHT22;6031;50.220;10.122;2023-05-24T05:37:57;9.40;1.00
11944;DHT22;6031;50.220;10.122;2023-05-24T05:40:22;9.50;1.00
11944;DHT22;6031;50.220;10.122;2023-05-24T05:42:48;9.70;1.00
11944;DHT22;6031;50.220;10.122;2023-05-24T05:45:14;9.90;1.00
11944;DHT22;6031;50.220;10.122;2023-05-24T05:47:40;10.10;99.90
11944;DHT22;6031;50.220;10.122;2023-05-24T05:50:06;10.20;99.90
11944;DHT22;6031;50.220;10.122;2023-05-24T05:52:32;10.40;99.90
11944;DHT22;6031;50.220;10.122;2023-05-24T05:54:57;10.30;99.90
11944;DHT22;6031;50.220;10.122;2023-05-24T05:57:24;10.60;99.90
11944;DHT22;6031;50.220;10.122;2023-05-24T05:59:50;11.20;99.90
11944;DHT22;6031;50.220;10.122;2023-05-24T06:02:15;12.10;1.00
11944;DHT22;6031;50.220;10.122;2023-05-24T06:04:43;12.90;1.00
11944;DHT22;6031;50.220;10.122;2023-05-24T06:07:08;13.40;1.00
11944;DHT22;6031;50.220;10.122;2023-05-24T06:09:34;13.60;1.00
11944;DHT22;6031;50.220;10.122;2023-05-24T06:11:59;13.60;1.00
11944;DHT22;6031;50.220;10.122;2023-05-24T06:14:25;14.10;1.00
11944;DHT22;6031;50.220;10.122;2023-05-24T06:16:51;14.30;1.00
11944;DHT22;6031;50.220;10.122;2023-05-24T06:19:19;14.90;1.00
11944;DHT22;6031;50.220;10.122;2023-05-24T06:21:46;15.10;1.00
11944;DHT22;6031;50.220;10.122;2023-05-24T06:24:18;15.50;1.00
11944;DHT22;6031;50.220;10.122;2023-05-24T06:26:49;16.30;1.00
11944;DHT22;6031;50.220;10.122;2023-05-24T06:29:15;16.40;1.00
11944;DHT22;6031;50.220;10.122;2023-05-24T06:31:41;15.50;1.00
11944;DHT22;6031;50.220;10.122;2023-05-24T06:34:07;15.70;1.00
11944;DHT22;6031;50.220;10.122;2023-05-24T06:36:33;16.50;1.00
11944;DHT22;6031;50.220;10.122;2023-05-24T06:39:00;16.00;1.00
11944;DHT22;6031;50.220;10.122;2023-05-24T06:41:26;16.10;1.00
11944;DHT22;6031;50.220;10.122;2023-05-24T06:43:52;15.30;1.00
11944;DHT22;6031;50.220;10.122;2023-05-24T06:46:17;14.80;1.00
11944;DHT22;6031;50.220;10.122;2023-05-24T06:48:43;14.60;1.00
11944;DHT22;6031;50.220;10.122;2023-05-24T06:51:08;14.40;1.00
11944;DHT22;6031;50.220;10.122;2023-05-24T06:53:34;13.70;1.00
11944;DHT22;6031;50.220;10.122;2023-05-24T06:55:59;14.40;1.00
11944;DHT22;6031;50.220;10.122;2023-05-24T06:58:26;15.10;1.00
11944;DHT22;6031;50.220;10.122;2023-05-24T07:00:51;16.70;1.00
11944;DHT22;6031;50.220;10.122;2023-05-24T07:03:17;18.20;1.00
11944;DHT22;6031;50.220;10.122;2023-05-24T07:05:42;18.60;1.00
11944;DHT22;6031;50.220;10.122;2023-05-24T07:08:08;18.60;1.00
11944;DHT22;6031;50.220;10.122;2023-05-24T07:10:33;18.70;1.00
11944;DHT22;6031;50.220;10.122;2023-05-24T07:12:59;19.70;1.00
11944;DHT22;6031;50.220;10.122;2023-05-24T07:15:26;19.30;1.00
11944;DHT22;6031;50.220;10.122;2023-05-24T07:17:51;18.30;1.00
11944;DHT22;6031;50.220;10.122;2023-05-24T07:20:17;17.90;1.00
11944;DHT22;6031;50.220;10.122;2023-05-24T07:22:42;17.20;1.00
11944;DHT22;6031;50.220;10.122;2023-05-24T07:25:08;16.70;1.00
11944;DHT22;6031;50.220;10.122;2023-05-24T07:27:34;15.90;1.00
11944;DHT22;6031;50.220;10.122;2023-05-24T07:30:00;15.10;1.00
11944;DHT22;6031;50.220;10.122;2023-05-24T07:32:25;14.90;1.00
11944;DHT22;6031;50.220;10.122;2023-05-24T07:34:51;14.60;1.00
11944;DHT22;6031;50.220;10.122;2023-05-24T07:37:17;14.40;1.00
11944;DHT22;6031;50.220;10.122;2023-05-24T07:39:43;14.40;1.00
11944;DHT22;6031;50.220;10.122;2023-05-24T07:42:09;14.40;1.00
11944;DHT22;6031;50.220;10.122;2023-05-24T07:44:34;14.40;1.00
11944;DHT22;6031;50.220;10.122;2023-05-24T07:47:00;14.20;1.00
11944;DHT22;6031;50.220;10.122;2023-05-24T07:49:27;14.40;1.00
11944;DHT22;6031;50.220;10.122;2023-05-24T07:51:53;14.40;1.00
11944;DHT22;6031;50.220;10.122;2023-05-24T07:54:22;14.30;1.00
11944;DHT22;6031;50.220;10.122;2023-05-24T07:56:48;13.90;1.00
11944;DHT22;6031;50.220;10.122;2023-05-24T07:59:13;14.00;1.00
11944;DHT22;6031;50.220;10.122;2023-05-24T08:01:39;14.50;1.00
11944;DHT22;6031;50.220;10.122;2023-05-24T08:04:05;15.20;1.00
11944;DHT22;6031;50.220;10.122;2023-05-24T08:06:33;15.70;1.00
11944;DHT22;6031;50.220;10.122;2023-05-24T08:08:59;16.20;1.00
11944;DHT22;6031;50.220;10.122;2023-05-24T08:11:25;16.20;1.00
11944;DHT22;6031;50.220;10.122;2023-05-24T08:13:51;15.80;1.00
11944;DHT22;6031;50.220;10.122;2023-05-24T08:16:17;16.20;1.00
11944;DHT22;6031;50.220;10.122;2023-05-24T08:18:43;15.70;1.00
11944;DHT22;6031;50.220;10.122;2023-05-24T08:21:08;15.80;1.00
11944;DHT22;6031;50.220;10.122;2023-05-24T08:23:34;15.90;1.00
11944;DHT22;6031;50.220;10.122;2023-05-24T08:26:00;15.30;1.00
11944;DHT22;6031;50.220;10.122;2023-05-24T08:28:26;15.20;1.00
11944;DHT22;6031;50.220;10.122;2023-05-24T08:30:52;15.40;1.00
11944;DHT22;6031;50.220;10.122;2023-05-24T08:33:18;15.40;1.00
11944;DHT22;6031;50.220;10.122;2023-05-24T08:35:43;15.00;1.00
11944;DHT22;6031;50.220;10.122;2023-05-24T08:38:09;14.90;1.00
11944;DHT22;6031;50.220;10.122;2023-05-24T08:40:34;14.80;1.00
11944;DHT22;6031;50.220;10.122;2023-05-24T08:43:01;14.50;1.00
11944;DHT22;6031;50.220;10.122;2023-05-24T08:45:31;14.10;1.00
11944;DHT22;6031;50.220;10.122;2023-05-24T08:47:57;14.00;1.00
11944;DHT22;6031;50.220;10.122;2023-05-24T08:50:24;14.10;1.00
11944;DHT22;6031;50.220;10.122;2023-05-24T08:52:50;14.30;1.00
11944;DHT22;6031;50.220;10.122;2023-05-24T08:55:16;14.40;1.00
11944;DHT22;6031;50.220;10.122;2023-05-24T08:57:43;14.60;1.00
11944;DHT22;6031;50.220;10.122;2023-05-24T09:00:11;14.70;1.00
11944;DHT22;6031;50.220;10.122;2023-05-24T09:02:41;14.30;1.00
11944;DHT22;6031;50.220;10.122;2023-05-24T09:05:12;13.80;1.00
11944;DHT22;6031;50.220;10.122;2023-05-24T09:07:43;13.50;1.00
11944;DHT22;6031;50.220;10.122;2023-05-24T09:10:09;13.50;1.00
11944;DHT22;6031;50.220;10.122;2023-05-24T09:12:39;13.70;1.00
11944;DHT22;6031;50.220;10.122;2023-05-24T09:15:08;13.80;1.00
11944;DHT22;6031;50.220;10.122;2023-05-24T09:17:35;14.20;1.00
11944;DHT22;6031;50.220;10.122;2023-05-24T09:20:01;14.20;1.00
11944;DHT22;6031;50.220;10.122;2023-05-24T09:22:28;13.90;1.00
11944;DHT22;6031;50.220;10.122;2023-05-24T09:25:00;13.70;1.00
11944;DHT22;6031;50.220;10.122;2023-05-24T09:27:26;13.60;1.00
11944;DHT22;6031;50.220;10.122;2023-05-24T09:29:52;13.60;1.00
11944;DHT22;6031;50.220;10.122;2023-05-24T09:32:18;13.90;1.00
11944;DHT22;6031;50.220;10.122;2023-05-24T09:34:47;14.60;1.00
11944;DHT22;6031;50.220;10.122;2023-05-24T09:37:17;15.50;1.00
11944;DHT22;6031;50.220;10.122;2023-05-24T09:39:47;15.60;1.00
11944;DHT22;6031;50.220;10.122;2023-05-24T09:42:17;16.50;1.00
11944;DHT22;6031;50.220;10.122;2023-05-24T09:44:46;16.70;1.00
11944;DHT22;6031;50.220;10.122;2023-05-24T09:47:13;17.20;1.00
11944;DHT22;6031;50.220;10.122;2023-05-24T09:49:40;18.20;1.00
11944;DHT22;6031;50.220;10.122;2023-05-24T09:52:05;18.60;1.00
11944;DHT22;6031;50.220;10.122;2023-05-24T09:54:32;20.20;1.00
11944;DHT22;6031;50.220;10.122;2023-05-24T09:57:01;20.90;1.00
11944;DHT22;6031;50.220;10.122;2023-05-24T09:59:31;22.30;1.00
11944;DHT22;6031;50.220;10.122;2023-05-24T10:02:07;23.00;99.90
11944;DHT22;6031;50.220;10.122;2023-05-24T10:04:40;24.20;99.90
11944;DHT22;6031;50.220;10.122;2023-05-24T10:07:06;23.60;99.90
11944;DHT22;6031;50.220;10.122;2023-05-24T10:09:34;24.40;99.90
11944;DHT22;6031;50.220;10.122;2023-05-24T10:12:05;23.40;99.90
11944;DHT22;6031;50.220;10.122;2023-05-24T10:14:35;23.10;99.90
11944;DHT22;6031;50.220;10.122;2023-05-24T10:17:05;23.50;99.90
11944;DHT22;6031;50.220;10.122;2023-05-24T10:19:35;23.20;99.90
11944;DHT22;6031;50.220;10.122;2023-05-24T10:22:05;22.80;99.90
11944;DHT22;6031;50.220;10.122;2023-05-24T10:24:39;23.20;99.90
11944;DHT22;6031;50.220;10.122;2023-05-24T10:27:11;22.80;99.90
11944;DHT22;6031;50.220;10.122;2023-05-24T10:29:50;22.80;99.90
11944;DHT22;6031;50.220;10.122;2023-05-24T10:32:18;22.70;99.90
11944;DHT22;6031;50.220;10.122;2023-05-24T10:34:45;21.70;99.90
11944;DHT22;6031;50.220;10.122;2023-05-24T10:37:11;22.20;99.90
11944;DHT22;6031;50.220;10.122;2023-05-24T10:39:37;22.80;99.90
11944;DHT22;6031;50.220;10.122;2023-05-24T10:42:03;24.00;99.90
11944;DHT22;6031;50.220;10.122;2023-05-24T10:44:29;24.40;99.90
11944;DHT22;6031;50.220;10.122;2023-05-24T10:47:09;25.60;99.90
11944;DHT22;6031;50.220;10.122;2023-05-24T10:49:37;24.40;99.90
11944;DHT22;6031;50.220;10.122;2023-05-24T10:52:08;23.60;99.90
11944;DHT22;6031;50.220;10.122;2023-05-24T10:54:34;22.60;99.90
11944;DHT22;6031;50.220;10.122;2023-05-24T10:57:02;22.80;99.90
11944;DHT22;6031;50.220;10.122;2023-05-24T10:59:37;23.20;99.90
11944;DHT22;6031;50.220;10.122;2023-05-24T11:02:09;24.70;99.90
11944;DHT22;6031;50.220;10.122;2023-05-24T11:04:41;22.40;99.90
11944;DHT22;6031;50.220;10.122;2023-05-24T11:07:08;22.60;99.90
11944;DHT22;6031;50.220;10.122;2023-05-24T11:09:37;23.50;99.90
11944;DHT22;6031;50.220;10.122;2023-05-24T11:12:13;22.90;99.90
11944;DHT22;6031;50.220;10.122;2023-05-24T11:14:39;23.30;99.90
11944;DHT22;6031;50.220;10.122;2023-05-24T11:17:08;22.50;99.90
11944;DHT22;6031;50.220;10.122;2023-05-24T11:19:43;22.50;99.90
11944;DHT22;6031;50.220;10.122;2023-05-24T11:22:12;23.30;99.90
11944;DHT22;6031;50.220;10.122;2023-05-24T11:24:39;23.80;99.90
11944;DHT22;6031;50.220;10.122;2023-05-24T11:27:06;24.00;99.90
11944;DHT22;6031;50.220;10.122;2023-05-24T11:29:32;24.70;99.90
11944;DHT22;6031;50.220;10.122;2023-05-24T11:32:04;25.70;99.90
11944;DHT22;6031;50.220;10.122;2023-05-24T11:34:31;25.50;99.90
11944;DHT22;6031;50.220;10.122;2023-05-24T11:36:57;23.30;99.90
11944;DHT22;6031;50.220;10.122;2023-05-24T11:39:28;22.40;99.90
11944;DHT22;6031;50.220;10.122;2023-05-24T11:41:55;22.70;99.90
11944;DHT22;6031;50.220;10.122;2023-05-24T11:44:21;22.90;99.90
11944;DHT22;6031;50.220;10.122;2023-05-24T11:46:46;23.90;99.90
11944;DHT22;6031;50.220;10.122;2023-05-24T11:49:13;24.40;99.90
11944;DHT22;6031;50.220;10.122;2023-05-24T11:51:40;25.10;99.90
11944;DHT22;6031;50.220;10.122;2023-05-24T11:54:05;24.80;99.90
11944;DHT22;6031;50.220;10.122;2023-05-24T11:56:31;25.40;99.90
11944;DHT22;6031;50.220;10.122;2023-05-24T11:59:18;25.10;99.90
11944;DHT22;6031;50.220;10.122;2023-05-24T12:01:46;23.60;99.90
11944;DHT22;6031;50.220;10.122;2023-05-24T12:04:12;23.40;99.90
11944;DHT22;6031;50.220;10.122;2023-05-24T12:06:41;24.80;99.90
11944;DHT22;6031;50.220;10.122;2023-05-24T12:09:08;23.80;99.90
11944;DHT22;6031;50.220;10.122;2023-05-24T12:11:39;22.80;99.90
11944;DHT22;6031;50.220;10.122;2023-05-24T12:14:06;21.70;99.90
11944;DHT22;6031;50.220;10.122;2023-05-24T12:16:32;21.60;99.90
11944;DHT22;6031;50.220;10.122;2023-05-24T12:19:00;21.70;99.90
11944;DHT22;6031;50.220;10.122;2023-05-24T12:21:29;22.30;99.90
11944;DHT22;6031;50.220;10.122;2023-05-24T12:23:55;22.80;99.90
11944;DHT22;6031;50.220;10.122;2023-05-24T12:26:21;21.80;99.90
11944;DHT22;6031;50.220;10.122;2023-05-24T12:28:52;22.00;99.90
11944;DHT22;6031;50.220;10.122;2023-05-24T12:31:18;21.50;99.90
11944;DHT22;6031;50.220;10.122;2023-05-24T12:33:44;21.10;99.90
11944;DHT22;6031;50.220;10.122;2023-05-24T12:36:09;21.00;99.90
11944;DHT22;6031;50.220;10.122;2023-05-24T12:38:36;21.10;99.90
11944;DHT22;6031;50.220;10.122;2023-05-24T12:41:01;20.80;99.90
11944;DHT22;6031;50.220;10.122;2023-05-24T12:43:28;20.90;99.90
11944;DHT22;6031;50.220;10.122;2023-05-24T12:45:53;21.10;99.90
11944;DHT22;6031;50.220;10.122;2023-05-24T12:48:20;21.10;99.90
11944;DHT22;6031;50.220;10.122;2023-05-24T12:50:45;21.40;99.90
11944;DHT22;6031;50.220;10.122;2023-05-24T12:53:11;22.20;99.90
11944;DHT22;6031;50.220;10.122;2023-05-24T12:55:36;21.30;99.90
11944;DHT22;6031;50.220;10.122;2023-05-24T12:58:02;21.40;99.90
11944;DHT22;6031;50.220;10.122;2023-05-24T13:00:30;22.20;99.90
11944;DHT22;6031;50.220;10.122;2023-05-24T13:02:56;21.80;99.90
11944;DHT22;6031;50.220;10.122;2023-05-24T13:05:24;22.10;99.90
11944;DHT22;6031;50.220;10.122;2023-05-24T13:07:51;22.10;99.90
11944;DHT22;6031;50.220;10.122;2023-05-24T13:10:17;22.40;99.90
11944;DHT22;6031;50.220;10.122;2023-05-24T13:12:44;21.90;99.90
11944;DHT22;6031;50.220;10.122;2023-05-24T13:15:10;21.50;99.90
11944;DHT22;6031;50.220;10.122;2023-05-24T13:17:35;21.30;99.90
11944;DHT22;6031;50.220;10.122;2023-05-24T13:20:03;21.40;99.90
11944;DHT22;6031;50.220;10.122;2023-05-24T13:22:31;21.30;99.90
11944;DHT22;6031;50.220;10.122;2023-05-24T13:24:57;21.90;99.90
11944;DHT22;6031;50.220;10.122;2023-05-24T13:27:22;22.10;99.90
11944;DHT22;6031;50.220;10.122;2023-05-24T13:29:48;22.00;99.90
11944;DHT22;6031;50.220;10.122;2023-05-24T13:32:14;20.90;99.90
11944;DHT22;6031;50.220;10.122;2023-05-24T13:34:40;21.00;99.90
11944;DHT22;6031;50.220;10.122;2023-05-24T13:37:06;20.90;99.90
11944;DHT22;6031;50.220;10.122;2023-05-24T13:39:32;20.50;99.90
11944;DHT22;6031;50.220;10.122;2023-05-24T13:41:57;20.10;99.90
11944;DHT22;6031;50.220;10.122;2023-05-24T13:44:25;19.90;99.90
11944;DHT22;6031;50.220;10.122;2023-05-24T13:46:50;19.60;99.90
11944;DHT22;6031;50.220;10.122;2023-05-24T13:49:16;19.40;99.90
11944;DHT22;6031;50.220;10.122;2023-05-24T13:51:42;18.90;99.90
11944;DHT22;6031;50.220;10.122;2023-05-24T13:54:08;18.70;99.90
11944;DHT22;6031;50.220;10.122;2023-05-24T13:56:34;19.20;99.90
11944;DHT22;6031;50.220;10.122;2023-05-24T13:59:00;20.30;99.90
11944;DHT22;6031;50.220;10.122;2023-05-24T14:01:27;20.90;99.90
11944;DHT22;6031;50.220;10.122;2023-05-24T14:03:52;20.70;99.90
11944;DHT22;6031;50.220;10.122;2023-05-24T14:06:18;20.40;99.90
11944;DHT22;6031;50.220;10.122;2023-05-24T14:08:44;20.60;99.90
11944;DHT22;6031;50.220;10.122;2023-05-24T14:11:10;20.80;99.90
11944;DHT22;6031;50.220;10.122;2023-05-24T14:13:41;20.70;99.90
11944;DHT22;6031;50.220;10.122;2023-05-24T14:16:07;20.90;99.90
11944;DHT22;6031;50.220;10.122;2023-05-24T14:18:33;20.60;99.90
11944;DHT22;6031;50.220;10.122;2023-05-24T14:20:59;20.90;99.90
11944;DHT22;6031;50.220;10.122;2023-05-24T14:23:25;21.30;99.90
11944;DHT22;6031;50.220;10.122;2023-05-24T14:25:51;20.40;99.90
11944;DHT22;6031;50.220;10.122;2023-05-24T14:28:17;20.20;99.90
11944;DHT22;6031;50.220;10.122;2023-05-24T14:30:43;20.70;99.90
11944;DHT22;6031;50.220;10.122;2023-05-24T14:33:09;21.00;99.90
11944;DHT22;6031;50.220;10.122;2023-05-24T14:35:36;21.30;99.90
11944;DHT22;6031;50.220;10.122;2023-05-24T14:38:05;21.30;99.90
11944;DHT22;6031;50.220;10.122;2023-05-24T14:40:32;20.80;99.90
11944;DHT22;6031;50.220;10.122;2023-05-24T14:43:05;21.20;99.90
11944;DHT22;6031;50.220;10.122;2023-05-24T14:45:32;20.80;99.90
11944;DHT22;6031;50.220;10.122;2023-05-24T14:47:57;20.70;99.90
11944;DHT22;6031;50.220;10.122;2023-05-24T14:50:23;20.80;99.90
11944;DHT22;6031;50.220;10.122;2023-05-24T14:52:49;20.90;99.90
11944;DHT22;6031;50.220;10.122;2023-05-24T14:55:14;20.50;99.90
11944;DHT22;6031;50.220;10.122;2023-05-24T14:57:40;20.20;99.90
11944;DHT22;6031;50.220;10.122;2023-05-24T15:00:07;20.00;99.90
11944;DHT22;6031;50.220;10.122;2023-05-24T15:02:33;19.70;99.90
11944;DHT22;6031;50.220;10.122;2023-05-24T15:04:59;20.00;99.90
11944;DHT22;6031;50.220;10.122;2023-05-24T15:07:24;20.10;99.90
11944;DHT22;6031;50.220;10.122;2023-05-24T15:09:50;20.20;99.90
11944;DHT22;6031;50.220;10.122;2023-05-24T15:12:16;20.40;99.90
11944;DHT22;6031;50.220;10.122;2023-05-24T15:14:41;20.20;99.90
11944;DHT22;6031;50.220;10.122;2023-05-24T15:17:08;20.10;99.90
11944;DHT22;6031;50.220;10.122;2023-05-24T15:19:33;20.20;99.90
11944;DHT22;6031;50.220;10.122;2023-05-24T15:21:59;20.30;99.90
11944;DHT22;6031;50.220;10.122;2023-05-24T15:24:24;20.20;99.90
11944;DHT22;6031;50.220;10.122;2023-05-24T15:26:50;20.00;99.90
11944;DHT22;6031;50.220;10.122;2023-05-24T15:29:15;19.70;99.90
11944;DHT22;6031;50.220;10.122;2023-05-24T15:31:41;19.60;99.90
11944;DHT22;6031;50.220;10.122;2023-05-24T15:34:07;19.30;99.90
11944;DHT22;6031;50.220;10.122;2023-05-24T15:36:32;19.10;99.90
11944;DHT22;6031;50.220;10.122;2023-05-24T15:38:58;19.20;99.90
11944;DHT22;6031;50.220;10.122;2023-05-24T15:41:23;19.10;99.90
11944;DHT22;6031;50.220;10.122;2023-05-24T15:43:50;19.10;99.90
11944;DHT22;6031;50.220;10.122;2023-05-24T15:46:16;19.10;99.90
11944;DHT22;6031;50.220;10.122;2023-05-24T15:48:41;19.10;99.90
11944;DHT22;6031;50.220;10.122;2023-05-24T15:51:07;18.40;99.90